Flight Track Log - Related Links

Times and Time Zones

All times are in EDT time to prevent confusion due to time zone crossing. See the NKS216 flight status page for this flight to view local times or setup timezone preferences in your user account.


Time Position Orientation Groundspeed Altitude Reporting Facility
EDT Latitude Longitude Course Direction KTS MPH feet Rate Location/Type
Fri 05:30:28 AM 32.4240 -117.8220 73° East 2 2  Level FlightAware ADS-B
Fri 05:33:27 AM 32.4250 -117.8220 360° North 20 23 134 Level FlightAware ADS-B
Fri 05:33:49 AM 32.4500 -117.8340 338° Northwest 2 2 311 Level FlightAware ADS-B
Fri 05:34:26 AM 32.4500 -117.8350 270° West 28 32 372 Level FlightAware ADS-B
Fri 05:34:54 AM 32.4500 -117.8380 270° West 28 32 553 Level FlightAware ADS-B
Fri 05:35:42 AM 33.9460 -118.4380 342° North 166 191 700 917 Climbing FlightAware ADS-B
Fri 05:36:06 AM 33.9460 -118.4460 270° West 164 189 1,100 2,464 Climbing FlightAware ADS-B
Fri 05:36:38 AM 33.8990 -118.4990 223° Southwest 248 285 3,000 2,900 Climbing FlightAware ADS-B
Fri 05:37:06 AM 33.8650 -118.5020 184° South 280 322 4,000 3,231 Climbing FlightAware ADS-B
Fri 05:37:30 AM 33.8330 -118.5070 187° South 268 308 5,800 3,849 Climbing FlightAware ADS-B
Fri 05:37:59 AM 33.7980 -118.5110 185° South 277 319 7,400 2,900 Climbing FlightAware ADS-B
Fri 05:38:30 AM 33.7560 -118.5150 185° South 296 341 8,700 2,630 Climbing FlightAware ADS-B
Fri 05:39:12 AM 33.6990 -118.5020 169° South 322 371 10,600 2,357 Climbing FlightAware ADS-B
Fri 05:39:26 AM 33.6860 -118.4840 131° Southeast 340 391 10,900 1,286 Climbing FlightAware ADS-B
Fri 05:39:40 AM 33.6760 -118.4570 114° Southeast 358 412 11,200 1,444 Climbing FlightAware ADS-B
Fri 05:40:20 AM 33.6540 -118.3770 108° East 392 451 12,200 -121 Climbing FlightAware ADS-B
Fri 05:41:19 AM 33.6830 -118.4780 289° West 348 400 11,000 2,093 Descending FlightAware ADS-B
Fri 05:41:46 AM 33.6450 -118.2050 99° East 407 468 15,200 5,364 Climbing FlightAware ADS-B
Fri 05:42:25 AM 33.6450 -118.1030 90° East 412 474 16,900 2,118 Climbing FlightAware ADS-B
Fri 05:43:11 AM 33.6370 -117.9940 95° East 427 491 18,200 1,705 Climbing FlightAware ADS-B
Fri 05:43:53 AM 33.6290 -117.8950 96° East 440 506 19,400 1,683 Climbing FlightAware ADS-B
Fri 05:44:33 AM 33.6230 -117.7970 94° East 449 517 20,500 1,610 Climbing FlightAware ADS-B
Fri 05:45:15 AM 33.6150 -117.6890 95° East 458 527 21,600 1,500 Climbing FlightAware ADS-B
Fri 05:45:57 AM 33.6080 -117.5830 95° East 467 537 22,600 1,535 Climbing FlightAware ADS-B
Fri 05:46:41 AM 33.6000 -117.4690 95° East 472 543 23,800 1,429 Climbing FlightAware ADS-B
Fri 05:47:21 AM 33.5920 -117.3650 95° East 482 555 24,600 1,214 Climbing FlightAware ADS-B
Fri 05:48:05 AM 33.5830 -117.2440 95° East 492 566 25,500 1,286 Climbing FlightAware ADS-B
Fri 05:48:45 AM 33.5750 -117.1370 95° East 498 573 26,400 1,235 Climbing FlightAware ADS-B
Fri 05:49:13 AM 33.5690 -117.0590 95° East 503 579 26,900 1,250 Climbing FlightAware ADS-B
Fri 05:49:57 AM 33.5600 -116.9350 95° East 510 587 27,900 1,200 Climbing FlightAware ADS-B
Fri 05:50:53 AM 33.5480 -116.7740 95° East 520 598 28,900 1,250 Climbing FlightAware ADS-B
Fri 05:51:33 AM 33.5390 -116.6600 95° East 518 596 29,900 1,286 Climbing FlightAware ADS-B
Fri 05:52:17 AM 33.5290 -116.5340 95° East 523 602 30,700 1,326 Climbing FlightAware ADS-B
Fri 05:52:59 AM 33.5190 -116.4120 96° East 519 597 31,800 1,407 Climbing FlightAware ADS-B
Fri 05:53:38 AM 33.5100 -116.3030 96° East 522 601 32,600 1,301 Climbing FlightAware ADS-B
Fri 05:54:22 AM 33.5000 -116.1760 95° East 521 600 33,600 1,310 Climbing FlightAware ADS-B
Fri 05:55:05 AM 33.4900 -116.0530 96° East 520 598 34,500 963 Climbing FlightAware ADS-B
Fri 05:55:43 AM 33.4830 -115.9820 97° East 521 600 34,900 1,214 Climbing FlightAware ADS-B
Fri 05:56:29 AM 33.4690 -115.8150 96° East 514 592 36,200 1,412 Climbing FlightAware ADS-B
Fri 05:57:08 AM 33.4600 -115.7050 96° East 512 589 36,900 593 Climbing FlightAware ADS-B
Fri 05:57:50 AM 33.4500 -115.5900 96° East 509 586 37,000 77 Climbing FlightAware ADS-B
Fri 05:58:26 AM 33.4410 -115.4850 96° East 509 586 37,000  Level FlightAware ADS-B
Fri 05:59:24 AM 33.4270 -115.3270 96° East 509 586 37,000 -37 Level FlightAware ADS-B
Fri 06:01:08 AM 33.4150 -115.2000 96° East 508 585 36,900 -43 Descending FlightAware ADS-B
Fri 06:01:45 AM 33.4070 -115.1120 96° East 508 585 36,900  Level FlightAware ADS-B
Fri 06:02:33 AM 33.3970 -114.9980 96° East 508 585 36,900  Level FlightAware ADS-B
Fri 06:03:10 AM 33.3900 -114.9100 95° East 508 585 36,900  Level FlightAware ADS-B
Fri 06:03:56 AM 33.3800 -114.8000 96° East 508 585 36,900  Level FlightAware ADS-B
Fri 06:04:33 AM 33.3720 -114.7120 96° East 508 585 36,900  Level FlightAware ADS-B
Fri 06:05:22 AM 33.3620 -114.5950 96° East 508 585 36,900 65 Level FlightAware ADS-B
Fri 06:06:05 AM 33.3250 -114.2430 97° East 514 592 37,000  Climbing FlightAware ADS-B
Fri 06:06:42 AM 33.3090 -114.0860 97° East 515 593 36,900  Descending FlightAware ADS-B
Fri 06:07:28 AM 33.2960 -113.9560 97° East 514 592 37,000 70 Climbing FlightAware ADS-B
Fri 06:08:08 AM 33.2850 -113.8430 97° East 515 593 37,000  Level FlightAware ADS-B
Fri 06:08:49 AM 33.2730 -113.7300 97° East 515 593 37,000  Level FlightAware ADS-B
Fri 06:09:28 AM 33.2670 -113.6700 97° East 514 592 37,000  Level FlightAware ADS-B
Fri 06:10:28 AM 33.2500 -113.5050 97° East 514 592 37,000  Level FlightAware ADS-B
Fri 06:11:12 AM 33.2320 -113.3320 97° East 515 593 37,000  Level FlightAware ADS-B
Fri 06:12:22 AM 33.2100 -113.1270 97° East 518 596 37,000  Level FlightAware ADS-B
Fri 06:13:03 AM 33.1980 -113.0170 97° East 518 596 37,000  Level FlightAware ADS-B
Fri 06:13:46 AM 33.1840 -112.8890 97° East 518 596 37,000  Level FlightAware ADS-B
Fri 06:14:28 AM 33.1710 -112.7700 97° East 518 596 37,000  Level FlightAware ADS-B
Fri 06:15:10 AM 33.1580 -112.6530 98° East 518 596 37,000  Level FlightAware ADS-B
Fri 06:15:54 AM 33.1440 -112.5270 98° East 517 595 37,000  Level FlightAware ADS-B
Fri 06:16:36 AM 33.1300 -112.4090 98° East 516 594 37,000  Level FlightAware ADS-B
Fri 06:17:18 AM 33.1190 -112.3080 97° East 516 594 37,000  Level FlightAware ADS-B
Fri 06:17:58 AM 33.1040 -112.1800 98° East 516 594 37,000  Level FlightAware ADS-B
Fri 06:18:38 AM 33.0910 -112.0650 98° East 516 594 37,000  Level FlightAware ADS-B
Fri 06:19:19 AM 33.0770 -111.9520 98° East 518 596 37,000  Level FlightAware ADS-B
Fri 06:20:04 AM 33.0620 -111.8220 98° East 517 595 37,000  Level FlightAware ADS-B
Fri 06:20:59 AM 33.0460 -111.6880 98° East 518 596 37,000  Level FlightAware ADS-B
Fri 06:21:42 AM 33.0290 -111.5460 98° East 517 595 37,000  Level FlightAware ADS-B
Fri 06:22:38 AM 33.0100 -111.3910 98° East 516 594 37,000  Level FlightAware ADS-B
Fri 06:23:21 AM 32.9960 -111.2730 98° East 514 592 37,000  Level FlightAware ADS-B
Fri 06:24:00 AM 32.9820 -111.1650 99° East 513 590 37,000  Level FlightAware ADS-B
Fri 06:24:44 AM 32.9670 -111.0420 98° East 512 589 37,000  Level FlightAware ADS-B
Fri 06:25:10 AM 32.9580 -110.9650 98° East 511 588 37,000  Level FlightAware ADS-B
Fri 06:26:00 AM 32.9400 -110.8250 99° East 510 587 37,000  Level FlightAware ADS-B
Fri 06:26:42 AM 32.9250 -110.7090 99° East 510 587 37,000  Level FlightAware ADS-B
Fri 06:27:26 AM 32.9090 -110.5870 99° East 509 586 37,000  Level FlightAware ADS-B
Fri 06:28:08 AM 32.8950 -110.4740 98° East 508 585 37,000 -73 Level FlightAware ADS-B
Fri 06:28:48 AM 32.8800 -110.3620 99° East 508 585 36,900  Descending FlightAware ADS-B
Fri 06:29:32 AM 32.8650 -110.2420 98° East 509 586 37,000 71 Climbing FlightAware ADS-B
Fri 06:30:12 AM 32.8500 -110.1300 99° East 508 585 37,000  Level FlightAware ADS-B
Fri 06:30:54 AM 32.8340 -110.0140 99° East 507 583 37,000  Level FlightAware ADS-B
Fri 06:31:36 AM 32.8190 -109.8990 99° East 507 583 37,000  Level FlightAware ADS-B
Fri 06:32:20 AM 32.8030 -109.7780 99° East 506 582 37,000  Level FlightAware ADS-B
Fri 06:33:02 AM 32.7870 -109.6610 99° East 507 583 37,000  Level FlightAware ADS-B
Fri 06:33:42 AM 32.7720 -109.5540 99° East 506 582 37,000  Level FlightAware ADS-B
Fri 06:34:24 AM 32.7560 -109.4380 99° East 506 582 37,000  Level FlightAware ADS-B
Fri 06:35:08 AM 32.7390 -109.3190 100° East 506 582 37,000  Level FlightAware ADS-B
Fri 06:35:50 AM 32.7230 -109.2020 99° East 506 582 37,000  Level FlightAware ADS-B
Fri 06:36:42 AM 32.7030 -109.0610 100° East 504 580 37,000  Level FlightAware ADS-B
Fri 06:37:24 AM 32.6870 -108.9460 99° East 505 581 37,000  Level FlightAware ADS-B
Fri 06:38:10 AM 32.6680 -108.8190 100° East 506 582 37,000  Level FlightAware ADS-B
Fri 06:38:50 AM 32.6530 -108.7110 99° East 507 583 37,000  Level FlightAware ADS-B
Fri 06:39:34 AM 32.6350 -108.5910 100° East 506 582 37,000  Level FlightAware ADS-B
Fri 06:40:14 AM 32.6190 -108.4800 100° East 506 582 37,000  Level FlightAware ADS-B
Fri 06:40:58 AM 32.6020 -108.3620 100° East 505 581 37,000 -73 Level FlightAware ADS-B
Fri 06:41:36 AM 32.5860 -108.2570 100° East 505 581 36,900 -66 Descending FlightAware ADS-B
Fri 06:42:29 AM 32.5680 -108.1300 100° East 505 581 36,900  Level FlightAware ADS-B
Fri 06:43:17 AM 32.5530 -108.0180 99° East 505 581 36,900 18 Level FlightAware ADS-B
Fri 06:47:58 AM 32.4290 -107.2240 100° East 502 578 37,000 16 Climbing FlightAware ADS-B
Fri 06:49:24 AM 32.4030 -107.0540 100° East 502 578 37,000  Level FlightAware ADS-B
Fri 06:50:05 AM 32.3740 -106.8810 101° East 501 577 37,000  Level FlightAware ADS-B
Fri 06:50:39 AM 32.3650 -106.8250 101° East 499 574 37,000  Level FlightAware ADS-B
Fri 06:51:21 AM 32.3410 -106.6780 101° East 497 572 37,000  Level FlightAware ADS-B
Fri 06:52:07 AM 32.3210 -106.5560 101° East 495 570 37,000  Level FlightAware ADS-B
Fri 06:52:46 AM 32.3040 -106.4510 101° East 493 567 37,000 -76 Level FlightAware ADS-B
Fri 06:53:26 AM 32.2870 -106.3470 101° East 492 566 36,900  Descending FlightAware ADS-B
Fri 06:54:12 AM 32.2680 -106.2300 101° East 492 566 37,000  Climbing FlightAware ADS-B
Fri 06:54:53 AM 32.2500 -106.1200 101° East 491 565 36,900  Descending FlightAware ADS-B
Fri 06:55:35 AM 32.2320 -106.0120 101° East 488 562 37,000 74 Climbing FlightAware ADS-B
Fri 06:56:14 AM 32.2180 -105.9260 101° East 488 562 37,000  Level FlightAware ADS-B
Fri 06:57:02 AM 32.2000 -105.8190 101° East 488 562 37,000  Level FlightAware ADS-B
Fri 06:57:38 AM 32.1870 -105.7390 101° East 488 562 37,000  Level FlightAware ADS-B
Fri 06:58:28 AM 32.1690 -105.6270 101° East 488 562 37,000  Level FlightAware ADS-B
Fri 06:59:04 AM 32.1550 -105.5470 102° East 488 562 37,000  Level FlightAware ADS-B
Fri 06:59:52 AM 32.1380 -105.4400 101° East 488 562 37,000  Level FlightAware ADS-B
Fri 07:00:30 AM 32.1240 -105.3560 101° East 488 562 37,000  Level FlightAware ADS-B
Fri 07:01:07 AM 32.1100 -105.2740 101° East 488 562 37,000  Level FlightAware ADS-B
Fri 07:01:56 AM 32.0920 -105.1650 101° East 488 562 37,000  Level FlightAware ADS-B
Fri 07:02:33 AM 32.0790 -105.0820 100° East 488 562 37,000  Level FlightAware ADS-B
Fri 07:03:35 AM 32.0210 -104.7850 103° East 485 558 37,000  Level FlightAware ADS-B
Fri 07:04:12 AM 32.0070 -104.7040 101° East 485 558 37,000 -70 Level FlightAware ADS-B
Fri 07:05:01 AM 31.9800 -104.5600 102° East 485 558 36,900  Descending FlightAware ADS-B
Fri 07:05:39 AM 31.9630 -104.4670 102° East 485 558 37,000 65 Climbing FlightAware ADS-B
Fri 07:06:33 AM 31.9370 -104.3230 102° East 485 558 37,000  Level FlightAware ADS-B
Fri 07:07:22 AM 31.9170 -104.2150 102° East 485 558 37,000  Level FlightAware ADS-B
Fri 07:07:59 AM 31.9030 -104.1340 101° East 485 558 37,000  Level FlightAware ADS-B
Fri 07:08:47 AM 31.8830 -104.0280 103° East 485 558 37,000  Level FlightAware ADS-B
Fri 07:09:23 AM 31.8690 -103.9490 102° East 485 558 37,000  Level FlightAware ADS-B
Fri 07:10:11 AM 31.8500 -103.8440 102° East 485 558 37,000  Level FlightAware ADS-B
Fri 07:11:40 AM 31.8150 -103.6480 102° East 485 558 37,000  Level FlightAware ADS-B
Fri 07:12:28 AM 31.7960 -103.5430 102° East 485 558 37,000  Level FlightAware ADS-B
Fri 07:13:04 AM 31.7810 -103.4640 103° East 485 558 37,000  Level FlightAware ADS-B
Fri 07:13:54 AM 31.7620 -103.3540 101° East 485 558 37,000  Level FlightAware ADS-B
Fri 07:14:30 AM 31.7470 -103.2750 103° East 485 558 37,000  Level FlightAware ADS-B
Fri 07:15:46 AM 31.7170 -103.1090 102° East 485 558 37,000 -38 Level FlightAware ADS-B
Fri 07:17:06 AM 31.6250 -102.6740 104° East 483 556 36,900 -50 Descending FlightAware ADS-B
Fri 07:17:46 AM 31.6040 -102.5700 103° East 483 556 36,900  Level FlightAware ADS-B
Fri 07:18:44 AM 31.5780 -102.4380 103° East 481 554 36,900 60 Level FlightAware ADS-B
Fri 07:19:26 AM 31.5540 -102.3150 103° East 479 551 37,000  Climbing FlightAware ADS-B
Fri 07:20:10 AM 31.5320 -102.2060 103° East 480 552 36,900 -53 Descending FlightAware ADS-B
Fri 07:21:20 AM 31.5220 -102.1550 103° East 481 554 36,900 54 Level FlightAware ADS-B
Fri 07:22:02 AM 31.4740 -101.9200 103° East 482 555 37,000 73 Climbing FlightAware ADS-B
Fri 07:22:42 AM 31.4540 -101.8200 103° East 482 555 37,000  Level FlightAware ADS-B
Fri 07:23:28 AM 31.4300 -101.7040 104° East 480 552 37,000  Level FlightAware ADS-B
Fri 07:24:04 AM 31.4120 -101.6120 103° East 481 554 37,000  Level FlightAware ADS-B
Fri 07:24:50 AM 31.3870 -101.4950 104° East 478 550 37,000  Level FlightAware ADS-B
Fri 07:25:32 AM 31.3660 -101.3920 103° East 476 548 37,000 -71 Level FlightAware ADS-B
Fri 07:26:14 AM 31.3440 -101.2860 104° East 476 548 36,900 -71 Descending FlightAware ADS-B
Fri 07:26:56 AM 31.3220 -101.1810 104° East 477 549 36,900  Level FlightAware ADS-B
Fri 07:27:36 AM 31.3010 -101.0820 104° East 480 552 36,900 71 Level FlightAware ADS-B
Fri 07:28:21 AM 31.2780 -100.9690 103° East 484 557 37,000 71 Climbing FlightAware ADS-B
Fri 07:29:01 AM 31.2550 -100.8640 104° East 485 558 37,000  Level FlightAware ADS-B
Fri 07:29:43 AM 31.2330 -100.7600 104° East 485 558 37,000  Level FlightAware ADS-B
Fri 07:30:18 AM 31.2160 -100.6780 104° East 485 558 37,000  Level FlightAware ADS-B
Fri 07:31:38 AM 31.2090 -100.6470 105° East 485 558 37,000  Level FlightAware ADS-B
Fri 07:32:27 AM 31.1430 -100.3410 104° East 488 562 37,000  Level FlightAware ADS-B
Fri 07:33:11 AM 31.1200 -100.2310 104° East 490 564 37,000  Level FlightAware ADS-B
Fri 07:33:45 AM 31.1000 -100.1430 105° East 489 563 37,000  Level FlightAware ADS-B
Fri 07:34:33 AM 31.0730 -100.0200 104° East 487 560 37,000  Level FlightAware ADS-B
Fri 07:35:15 AM 31.0500 -99.9140 104° East 486 559 37,000  Level FlightAware ADS-B
Fri 07:35:56 AM 31.0337 -99.8090 100° East 485 558 37,000  Level FlightAware ADS-B
Fri 07:36:39 AM 31.0290 -99.6980 93° East 481 554 37,000  Level FlightAware ADS-B
Fri 07:37:29 AM 31.0234 -99.5681 93° East 480 552 37,000 -72 Level FlightAware ADS-B
Fri 07:38:02 AM 31.0190 -99.4840 93° East 478 550 36,900 -77 Descending FlightAware ADS-B
Fri 07:38:47 AM 31.0140 -99.3680 93° East 478 550 36,900  Level FlightAware ADS-B
Fri 07:39:25 AM 31.0090 -99.2700 93° East 479 551 36,900 73 Level FlightAware ADS-B
Fri 07:40:09 AM 31.0040 -99.1560 93° East 480 552 37,000 68 Climbing FlightAware ADS-B
Fri 07:40:53 AM 30.9980 -99.0430 94° East 481 554 37,000  Level FlightAware ADS-B
Fri 07:41:36 AM 30.9920 -98.9340 94° East 481 554 37,000  Level FlightAware ADS-B
Fri 07:42:14 AM 30.9870 -98.8350 93° East 480 552 37,000  Level FlightAware ADS-B
Fri 07:42:58 AM 30.9810 -98.7200 93° East 479 551 37,000  Level FlightAware ADS-B
Fri 07:43:42 AM 30.9750 -98.6050 93° East 479 551 37,000  Level FlightAware ADS-B
Fri 07:44:20 AM 30.9700 -98.5080 93° East 477 549 37,000  Level FlightAware ADS-B
Fri 07:45:03 AM 30.9640 -98.4010 94° East 474 545 37,000 -67 Level FlightAware ADS-B
Fri 07:45:49 AM 30.9572 -98.2829 94° East 475 547 36,900 -67 Descending FlightAware ADS-B
Fri 07:46:33 AM 30.9508 -98.1697 94° East 476 548 36,900 79 Level FlightAware ADS-B
Fri 07:47:05 AM 30.9460 -98.0887 94° East 476 548 37,000 97 Climbing FlightAware ADS-B
Fri 07:47:35 AM 30.9415 -98.0106 94° East 478 550 37,000  Level FlightAware ADS-B
Fri 07:48:06 AM 30.9369 -97.9312 94° East 479 551 37,000  Level FlightAware ADS-B
Fri 07:48:37 AM 30.9322 -97.8534 94° East 478 550 37,000  Level FlightAware ADS-B
Fri 07:49:07 AM 30.9276 -97.7763 94° East 476 548 37,000  Level FlightAware ADS-B
Fri 07:49:37 AM 30.9229 -97.6988 94° East 476 548 37,000 -492 Level FlightAware ADS-B
Fri 07:50:08 AM 30.9180 -97.6201 94° East 476 548 36,500 -984 Descending FlightAware ADS-B
Fri 07:50:38 AM 30.9132 -97.5433 94° East 473 544 36,000 -1,000 Descending FlightAware ADS-B
Fri 07:51:08 AM 30.9085 -97.4668 94° East 475 547 35,500 -1,000 Descending FlightAware ADS-B
Fri 07:51:38 AM 30.9037 -97.3897 94° East 481 554 35,000 -984 Descending FlightAware ADS-B
Fri 07:52:09 AM 30.8990 -97.3110 94° East 489 563 34,500 -984 Descending FlightAware ADS-B
Fri 07:52:39 AM 30.8939 -97.2321 94° East 492 566 34,000 -1,000 Descending FlightAware ADS-B
Fri 07:53:09 AM 30.8887 -97.1530 94° East 486 559 33,500 -984 Descending FlightAware ADS-B
Fri 07:53:40 AM 30.8830 -97.0716 95° East 484 557 33,000 -968 Descending FlightAware ADS-B
Fri 07:54:11 AM 30.8778 -96.9917 94° East 482 555 32,500 -952 Descending FlightAware ADS-B
Fri 07:54:43 AM 30.8724 -96.9090 94° East 485 558 32,000 -968 Descending FlightAware ADS-B
Fri 07:55:13 AM 30.8671 -96.8300 94° East 490 564 31,500 -1,100 Descending FlightAware ADS-B
Fri 07:55:43 AM 30.8615 -96.7510 95° East 494 568 30,900 -1,574 Descending FlightAware ADS-B
Fri 07:56:14 AM 30.8560 -96.6705 95° East 492 566 29,900 -2,613 Descending FlightAware ADS-B
Fri 07:56:45 AM 30.8503 -96.5883 95° East 494 568 28,200 -2,478 Descending FlightAware ADS-B
Fri 07:57:46 AM 30.8397 -96.4356 95° East 443 510 26,100 -2,478 Descending FlightAware ADS-B
Fri 07:58:17 AM 30.8348 -96.3643 95° East 427 491 24,400 -3,403 Descending FlightAware ADS-B
Fri 07:58:53 AM 30.8272 -96.2833 100° East 407 468 22,300 -3,545 Descending FlightAware ADS-B
Fri 07:59:01 AM 30.8226 -96.2675 109° East 406 467 21,800 -4,000 Descending FlightAware ADS-B
Fri 07:59:05 AM 30.8190 -96.2587 115° Southeast 405 466 21,500 -3,692 Descending FlightAware ADS-B
Fri 07:59:14 AM 30.8111 -96.2436 121° Southeast 402 463 21,000 -3,200 Descending FlightAware ADS-B
Fri 07:59:20 AM 30.8040 -96.2331 128° Southeast 398 458 20,700 -3,273 Descending FlightAware ADS-B
Fri 07:59:25 AM 30.7972 -96.2248 134° Southeast 394 453 20,400 -3,429 Descending FlightAware ADS-B
Fri 07:59:55 AM 30.7570 -96.1825 138° Southeast 384 442 18,700 -3,246 Descending FlightAware ADS-B
Fri 08:00:26 AM 30.7175 -96.1404 137° Southeast 384 442 17,100 -3,099 Descending FlightAware ADS-B
Fri 08:01:26 AM 30.6410 -96.0599 138° Southeast 368 423 14,000 -2,769 Descending FlightAware ADS-B
Fri 08:01:57 AM 30.6018 -96.0185 138° Southeast 362 417 12,900 -1,033 Descending FlightAware ADS-B
Fri 08:03:28 AM 30.4901 -95.9009 138° Southeast 332 382 11,900 -492 Descending FlightAware ADS-B
Fri 08:03:59 AM 30.4567 -95.8660 138° Southeast 302 348 11,900 -689 Level FlightAware ADS-B
Fri 08:04:29 AM 30.4258 -95.8334 138° Southeast 296 341 11,200 -1,488 Descending FlightAware ADS-B
Fri 08:06:00 AM 30.3341 -95.7371 138° Southeast 286 329 8,900 -1,525 Descending FlightAware ADS-B
Fri 08:06:31 AM 30.3044 -95.7059 138° Southeast 287 330 8,100 -1,178 Descending FlightAware ADS-B
Fri 08:07:47 AM 30.2309 -95.6289 138° Southeast 278 320 6,800 -585 Descending FlightAware ADS-B
Fri 08:08:34 AM 30.1865 -95.5828 138° Southeast 278 320 6,900 54 Climbing FlightAware ADS-B
Fri 08:09:38 AM 30.1246 -95.5188 138° Southeast 277 319 6,900  Level FlightAware ADS-B
Fri 08:09:45 AM 30.1184 -95.5121 137° Southeast 277 319 6,900  Level FlightAware ADS-B
Fri 08:09:49 AM 30.1149 -95.5076 132° Southeast 278 320 6,900  Level FlightAware ADS-B
Fri 08:09:57 AM 30.1093 -95.4973 118° Southeast 280 322 6,900  Level FlightAware ADS-B
Fri 08:10:08 AM 30.1059 -95.4821 100° East 283 326 6,900  Level FlightAware ADS-B
Fri 08:10:53 AM 30.1064 -95.4132 90° East 283 326 6,900  Level FlightAware ADS-B
Fri 08:11:24 AM 30.1064 -95.3671 90° East 283 326 6,900  Level FlightAware ADS-B
Fri 08:11:39 AM 30.1065 -95.3441 90° East 283 326 6,900  Level FlightAware ADS-B
Fri 08:11:58 AM 30.1066 -95.3157 90° East 282 325 6,900  Level FlightAware ADS-B
Fri 08:12:13 AM 30.1066 -95.2931 90° East 282 325 6,900  Level FlightAware ADS-B
Fri 08:12:30 AM 30.1066 -95.2677 90° East 283 326 6,900  Level FlightAware ADS-B
Fri 08:12:43 AM 30.1066 -95.2484 90° East 283 326 6,900  Level FlightAware ADS-B
Fri 08:12:58 AM 30.1065 -95.2248 90° East 283 326 6,900  Level FlightAware ADS-B
Fri 08:13:14 AM 30.1065 -95.2017 90° East 283 326 6,900  Level FlightAware ADS-B
Fri 08:13:29 AM 30.1065 -95.1785 90° East 283 326 6,900 -200 Level FlightAware ADS-B
Fri 08:13:44 AM 30.1064 -95.1564 90° East 272 313 6,800  Descending FlightAware ADS-B
Fri 08:14:13 AM 30.1063 -95.1172 90° East 244 281 6,900 109 Climbing FlightAware ADS-B
Fri 08:14:39 AM 30.1064 -95.0833 90° East 238 274 6,900  Level FlightAware ADS-B
Fri 08:15:11 AM 30.1063 -95.0426 90° East 238 274 6,900  Level FlightAware ADS-B
Fri 08:15:59 AM 30.1062 -94.9812 90° East 239 275 6,900  Level FlightAware ADS-B
Fri 08:16:29 AM 30.1058 -94.9439 93° East 239 275 6,900  Level FlightAware ADS-B
Fri 08:16:38 AM 30.1040 -94.9317 102° East 238 274 6,900  Level FlightAware ADS-B
Fri 08:16:42 AM 30.1031 -94.9276 104° East 238 274 6,900  Level FlightAware ADS-B
Fri 08:16:57 AM 30.0986 -94.9085 105° East 238 274 6,900  Level FlightAware ADS-B
Fri 08:17:13 AM 30.0941 -94.8895 105° East 238 274 6,900  Level FlightAware ADS-B
Fri 08:17:31 AM 30.0878 -94.8673 117° Southeast 238 274 6,900  Level FlightAware ADS-B
Fri 08:17:39 AM 30.0831 -94.8597 130° Southeast 237 273 6,900  Level FlightAware ADS-B
Fri 08:17:49 AM 30.0738 -94.8524 153° Southeast 236 272 6,900  Level FlightAware ADS-B
Fri 08:17:56 AM 30.0664 -94.8499 167° South 236 272 6,900  Level FlightAware ADS-B
Fri 08:18:08 AM 30.0531 -94.8501 187° South 236 272 6,900  Level FlightAware ADS-B
Fri 08:18:12 AM 30.0493 -94.8511 193° South 235 270 6,900  Level FlightAware ADS-B
Fri 08:18:17 AM 30.0439 -94.8531 198° South 235 270 6,900  Level FlightAware ADS-B
Fri 08:18:25 AM 30.0358 -94.8569 202° Southwest 235 270 6,900  Level FlightAware ADS-B
Fri 08:18:41 AM 30.0203 -94.8646 203° Southwest 232 267 6,900  Level FlightAware ADS-B
Fri 08:18:56 AM 30.0060 -94.8717 203° Southwest 218 251 6,900  Level FlightAware ADS-B
Fri 08:19:00 AM 30.0019 -94.8741 207° Southwest 216 249 6,900  Level FlightAware ADS-B
Fri 08:19:04 AM 29.9993 -94.8762 215° Southwest 216 249 6,900  Level FlightAware ADS-B
Fri 08:19:08 AM 29.9962 -94.8800 227° Southwest 215 247 6,900  Level FlightAware ADS-B
Fri 08:19:12 AM 29.9942 -94.8837 238° Southwest 215 247 6,900  Level FlightAware ADS-B
Fri 08:19:20 AM 29.9922 -94.8927 260° West 216 249 6,900  Level FlightAware ADS-B
Fri 08:19:32 AM 29.9926 -94.9060 273° West 216 249 6,900 -686 Level FlightAware ADS-B
Fri 08:19:55 AM 29.9929 -94.9330 270° West 217 250 6,500 -1,250 Descending FlightAware ADS-B
Fri 08:20:20 AM 29.9930 -94.9618 271° West 216 249 5,900 -1,350 Descending FlightAware ADS-B
Fri 08:20:35 AM 29.9930 -94.9792 270° West 215 247 5,600 -1,161 Descending FlightAware ADS-B
Fri 08:20:51 AM 29.9931 -94.9978 270° West 214 246 5,300 -1,174 Descending FlightAware ADS-B
Fri 08:21:21 AM 29.9932 -95.0316 270° West 208 239 4,700 -1,082 Descending FlightAware ADS-B
Fri 08:21:52 AM 29.9933 -95.0653 270° West 204 235 4,200 -1,065 Descending FlightAware ADS-B
Fri 08:22:23 AM 29.9933 -95.0994 270° West 205 236 3,600 -1,091 Descending FlightAware ADS-B
Fri 08:22:47 AM 29.9933 -95.1247 270° West 203 234 3,200 -1,029 Descending FlightAware ADS-B
Fri 08:22:58 AM 29.9934 -95.1373 271° West 202 232 3,000 -1,111 Descending FlightAware ADS-B
Fri 08:23:14 AM 29.9934 -95.1536 270° West 198 228 2,700 -857 Descending FlightAware ADS-B
Fri 08:23:26 AM 29.9934 -95.1663 270° West 190 219 2,600 -1,071 Descending FlightAware ADS-B
Fri 08:23:42 AM 29.9934 -95.1829 270° West 190 219 2,200 -1,091 Descending FlightAware ADS-B
Fri 08:23:59 AM 29.9935 -95.1993 270° West 183 211 2,000 -727 Descending FlightAware ADS-B
Fri 08:24:15 AM 29.9934 -95.2143 270° West 182 209 1,800 -774 Descending FlightAware ADS-B
Fri 08:24:30 AM 29.9935 -95.2289 270° West 173 199 1,600 -1,000 Descending FlightAware ADS-B
Fri 08:24:45 AM 29.9934 -95.2424 270° West 162 186 1,300 -968 Descending FlightAware ADS-B
Fri 08:25:01 AM 29.9934 -95.2553 270° West 148 170 1,100 -774 Descending FlightAware ADS-B
Fri 08:25:16 AM 29.9934 -95.2664 270° West 133 153 900 -692 Descending FlightAware ADS-B
Fri 08:25:27 AM 29.9934 -95.2740 270° West 130 150 800 -667 Descending FlightAware ADS-B
Fri 08:25:43 AM 29.9934 -95.2853 270° West 127 146 600 -563 Descending FlightAware ADS-B
Fri 08:25:59 AM 29.9934 -95.2957 270° West 128 147 500 -563 Descending FlightAware ADS-B
Fri 08:26:15 AM 29.9934 -95.3066 270° West 128 147 300 -774 Descending FlightAware ADS-B
Fri 08:26:30 AM 29.9934 -95.3173 270° West 130 150 100 -800 Descending FlightAware ADS-B

Login

Don't have an account? Register now (free) for customized features, flight alerts, and more!